Time;durP1;ratioP1;P1;durP2;ratioP2;P2;SDS_P1;SDS_P2;PMS_P1;PMS_P2;Temp;Humidity;BMP_temperature;BMP_pressure;BME280_temperature;BME280_humidity;BME280_pressure;Samples;Min_cycle;Max_cycle;Signal;HPM_P1;HPM_P2
2023/04/24 00:02:15;;;;;;;10.23;9.37;;;;;;;;;;5017012;28;20433;-78
2023/04/24 00:04:44;;;;;;;10.20;9.40;;;;;;;;;;5032720;28;20441;-78
2023/04/24 00:07:10;;;;;;;11.90;10.95;;;;;;;;;;5017323;28;20445;-78
2023/04/24 00:09:36;;;;;;;11.52;10.63;;;;;;;;;;5033261;28;20417;-78
2023/04/24 00:12:04;;;;;;;12.10;11.10;;;;;;;;;;5017557;28;20401;-83
2023/04/24 00:14:30;;;;;;;12.80;11.65;;;;;;;;;;5033399;28;20416;-83
2023/04/24 00:16:56;;;;;;;12.57;11.55;;;;;;;;;;5033262;28;20421;-83
2023/04/24 00:19:22;;;;;;;13.23;12.02;;;;;;;;;;5019836;28;20499;-81
2023/04/24 00:21:52;;;;;;;12.13;11.13;;;;;;;;;;5031412;28;20401;-82
2023/04/24 00:24:18;;;;;;;12.52;11.52;;;;;;;;;;5053216;28;20431;-82
2023/04/24 00:26:44;;;;;;;11.25;10.35;;;;;;;;;;5046340;28;20462;-83
2023/04/24 00:29:10;;;;;;;8.13;7.43;;;;;;;;;;5033171;28;20401;-78
2023/04/24 00:31:39;;;;;;;6.70;6.13;;;;;;;;;;5023090;28;20407;-78
2023/04/24 00:34:06;;;;;;;7.18;6.57;;;;;;;;;;5034548;28;20412;-78
2023/04/24 00:36:35;;;;;;;7.20;6.67;;;;;;;;;;5050423;28;20491;-78
2023/04/24 00:39:02;;;;;;;7.38;6.78;;;;;;;;;;5020298;28;20413;-78
2023/04/24 00:41:28;;;;;;;8.95;8.25;;;;;;;;;;5043230;28;20413;-79
2023/04/24 00:43:54;;;;;;;8.15;7.45;;;;;;;;;;5020003;28;20440;-79
2023/04/24 00:46:20;;;;;;;6.85;6.35;;;;;;;;;;5031883;28;20501;-83
2023/04/24 00:48:46;;;;;;;7.20;6.70;;;;;;;;;;5033923;28;20439;-83
2023/04/24 00:51:13;;;;;;;6.35;5.80;;;;;;;;;;5044332;28;20499;-83
2023/04/24 00:53:39;;;;;;;5.45;5.05;;;;;;;;;;5050842;28;20400;-83
2023/04/24 00:56:08;;;;;;;5.72;5.32;;;;;;;;;;5052510;28;20416;-83
2023/04/24 00:58:34;;;;;;;6.10;5.60;;;;;;;;;;5038892;28;20421;-83
2023/04/24 01:01:00;;;;;;;6.82;6.22;;;;;;;;;;5039926;28;20427;-79
2023/04/24 01:03:28;;;;;;;7.70;7.10;;;;;;;;;;5053159;28;20432;-79
2023/04/24 01:05:54;;;;;;;9.02;8.27;;;;;;;;;;5042420;28;20421;-78
2023/04/24 01:08:21;;;;;;;10.75;9.85;;;;;;;;;;5020099;28;20427;-78
2023/04/24 01:10:48;;;;;;;13.70;12.32;;;;;;;;;;5063426;28;20414;-78
2023/04/24 01:13:14;;;;;;;16.73;15.18;;;;;;;;;;5036651;28;20424;-78
2023/04/24 01:15:40;;;;;;;20.48;18.50;;;;;;;;;;5040745;28;20426;-79
2023/04/24 01:18:06;;;;;;;24.83;22.42;;;;;;;;;;5059495;28;20416;-79
2023/04/24 01:20:32;;;;;;;24.63;22.33;;;;;;;;;;5042359;28;20427;-80
2023/04/24 01:23:00;;;;;;;25.85;23.35;;;;;;;;;;5040328;28;20427;-80
2023/04/24 01:25:26;;;;;;;24.52;22.23;;;;;;;;;;5035693;28;20408;-80
2023/04/24 01:27:52;;;;;;;25.50;22.98;;;;;;;;;;5059817;28;20390;-79
2023/04/24 01:30:18;;;;;;;25.15;22.77;;;;;;;;;;5039067;28;20402;-80
2023/04/24 01:32:45;;;;;;;25.67;23.20;;;;;;;;;;5073402;28;20413;-80
2023/04/24 01:35:11;;;;;;;25.95;23.55;;;;;;;;;;5073335;28;20599;-79
2023/04/24 01:37:37;;;;;;;25.95;23.48;;;;;;;;;;5055485;28;20409;-80
2023/04/24 01:40:05;;;;;;;26.90;24.23;;;;;;;;;;5022192;28;20420;-79
2023/04/24 01:42:31;;;;;;;28.17;25.47;;;;;;;;;;5053172;28;20396;-79
2023/04/24 01:44:57;;;;;;;27.02;24.52;;;;;;;;;;5052365;28;20442;-79
2023/04/24 01:47:24;;;;;;;27.02;24.63;;;;;;;;;;5051415;28;20446;-79
2023/04/24 01:49:51;;;;;;;25.08;22.88;;;;;;;;;;5045337;28;20401;-79
2023/04/24 01:52:18;;;;;;;22.07;20.13;;;;;;;;;;5037435;28;20415;-80
2023/04/24 01:54:44;;;;;;;22.73;20.73;;;;;;;;;;5040526;28;22165;-80
2023/04/24 01:57:10;;;;;;;22.00;20.10;;;;;;;;;;5039313;28;20403;-80
2023/04/24 01:59:37;;;;;;;22.58;20.58;;;;;;;;;;5057213;28;20420;-80
2023/04/24 02:02:03;;;;;;;24.55;22.25;;;;;;;;;;5025486;28;20421;-80
2023/04/24 02:04:29;;;;;;;24.67;22.30;;;;;;;;;;5019240;28;20472;-80
2023/04/24 02:06:55;;;;;;;26.33;23.85;;;;;;;;;;5055941;28;20404;-80
2023/04/24 02:09:21;;;;;;;26.90;24.20;;;;;;;;;;5039325;28;20495;-81
2023/04/24 02:11:47;;;;;;;27.48;24.77;;;;;;;;;;5039008;28;20443;-81
2023/04/24 02:14:13;;;;;;;27.45;24.88;;;;;;;;;;5029850;23;20408;-80
2023/04/24 02:16:40;;;;;;;29.27;26.48;;;;;;;;;;5002326;28;20441;-81
2023/04/24 02:19:06;;;;;;;29.08;26.40;;;;;;;;;;5018611;28;20421;-80
2023/04/24 02:21:32;;;;;;;29.25;26.45;;;;;;;;;;5036227;28;20469;-80
2023/04/24 02:23:58;;;;;;;29.88;27.08;;;;;;;;;;5034906;28;20436;-80
2023/04/24 02:26:24;;;;;;;29.83;26.92;;;;;;;;;;5034835;28;20407;-80
2023/04/24 02:28:50;;;;;;;30.00;27.10;;;;;;;;;;5016923;28;20455;-80
2023/04/24 02:31:16;;;;;;;30.52;27.52;;;;;;;;;;5002844;28;20417;-80
2023/04/24 02:33:42;;;;;;;30.53;27.63;;;;;;;;;;5002440;28;20443;-81
2023/04/24 02:36:08;;;;;;;30.83;27.73;;;;;;;;;;5018830;28;20432;-80
2023/04/24 02:38:34;;;;;;;33.08;29.88;;;;;;;;;;5011323;28;20421;-81
2023/04/24 02:41:01;;;;;;;31.25;28.15;;;;;;;;;;5035341;28;20416;-81
2023/04/24 02:43:28;;;;;;;31.75;28.58;;;;;;;;;;5018689;28;20434;-81
2023/04/24 02:45:54;;;;;;;31.13;28.02;;;;;;;;;;5035036;28;20405;-81
2023/04/24 02:48:20;;;;;;;30.42;27.48;;;;;;;;;;5035206;28;20402;-80
2023/04/24 02:50:47;;;;;;;31.88;28.67;;;;;;;;;;5035276;28;20418;-81
2023/04/24 02:53:13;;;;;;;28.90;26.02;;;;;;;;;;5035451;28;20405;-81
2023/04/24 02:55:39;;;;;;;29.50;26.65;;;;;;;;;;5035416;28;20422;-81
2023/04/24 02:58:05;;;;;;;29.15;26.27;;;;;;;;;;5018459;28;20421;-81
2023/04/24 03:00:31;;;;;;;28.75;26.00;;;;;;;;;;5018368;28;20494;-81
2023/04/24 03:02:57;;;;;;;28.73;25.92;;;;;;;;;;5027467;28;20512;-81
2023/04/24 03:05:24;;;;;;;29.53;26.63;;;;;;;;;;5030285;28;20441;-81
2023/04/24 03:07:52;;;;;;;29.42;26.52;;;;;;;;;;5018689;28;20409;-81
2023/04/24 03:10:18;;;;;;;28.45;25.60;;;;;;;;;;5018956;28;20414;-81
2023/04/24 03:12:44;;;;;;;28.92;26.13;;;;;;;;;;5018678;28;20504;-81
2023/04/24 03:15:10;;;;;;;26.95;24.25;;;;;;;;;;5034408;28;20429;-80
2023/04/24 03:17:36;;;;;;;27.25;24.55;;;;;;;;;;5034475;28;20437;-80
2023/04/24 03:20:05;;;;;;;27.02;24.20;;;;;;;;;;5034400;28;20406;-79
2023/04/24 03:22:32;;;;;;;28.63;25.83;;;;;;;;;;5034644;28;20444;-79
2023/04/24 03:24:58;;;;;;;28.63;25.83;;;;;;;;;;5034597;28;20460;-79
2023/04/24 03:27:24;;;;;;;28.85;26.02;;;;;;;;;;5018622;28;20508;-79
2023/04/24 03:29:56;;;;;;;28.48;25.75;;;;;;;;;;5018225;28;20405;-79
2023/04/24 03:32:23;;;;;;;29.70;26.75;;;;;;;;;;5034098;28;20413;-79
2023/04/24 03:34:49;;;;;;;32.03;28.63;;;;;;;;;;5034610;28;20413;-79
2023/04/24 03:37:16;;;;;;;31.48;28.30;;;;;;;;;;5017781;28;20479;-79
2023/04/24 03:39:42;;;;;;;30.10;27.10;;;;;;;;;;5034255;28;20417;-79
2023/04/24 03:42:08;;;;;;;33.83;30.42;;;;;;;;;;5017500;28;20424;-79
2023/04/24 03:44:34;;;;;;;36.45;32.83;;;;;;;;;;5017720;28;20429;-79
2023/04/24 03:47:01;;;;;;;40.00;35.90;;;;;;;;;;5033919;28;20410;-79
2023/04/24 03:49:27;;;;;;;42.13;37.65;;;;;;;;;;5033960;28;20417;-79
2023/04/24 03:51:53;;;;;;;43.28;38.88;;;;;;;;;;5033762;28;20409;-79
2023/04/24 03:54:19;;;;;;;45.50;40.80;;;;;;;;;;5017370;28;20417;-80
2023/04/24 03:56:46;;;;;;;48.17;43.13;;;;;;;;;;5034813;28;20413;-80
2023/04/24 03:59:13;;;;;;;48.47;43.63;;;;;;;;;;5033738;28;20441;-79
2023/04/24 04:01:39;;;;;;;52.33;46.70;;;;;;;;;;5012052;28;20426;-79
2023/04/24 04:04:05;;;;;;;53.47;47.70;;;;;;;;;;4997429;28;20434;-80
2023/04/24 04:06:31;;;;;;;51.17;45.77;;;;;;;;;;4997531;28;20402;-78
2023/04/24 04:08:58;;;;;;;53.17;47.45;;;;;;;;;;4997369;28;20433;-78
2023/04/24 04:11:24;;;;;;;51.70;46.25;;;;;;;;;;5013792;28;20399;-78
2023/04/24 04:13:50;;;;;;;50.65;45.40;;;;;;;;;;4997257;28;20423;-78
2023/04/24 04:16:17;;;;;;;49.45;44.45;;;;;;;;;;4995992;28;20431;-78
2023/04/24 04:18:43;;;;;;;50.08;44.78;;;;;;;;;;4997195;28;20422;-78
2023/04/24 04:21:09;;;;;;;47.50;42.83;;;;;;;;;;5014635;28;20457;-79
2023/04/24 04:23:35;;;;;;;48.85;43.80;;;;;;;;;;4997003;28;20442;-79
2023/04/24 04:26:02;;;;;;;49.47;44.30;;;;;;;;;;4997282;28;20411;-79
2023/04/24 04:28:28;;;;;;;46.08;41.35;;;;;;;;;;5011726;28;20422;-79
2023/04/24 04:30:54;;;;;;;45.72;41.13;;;;;;;;;;5033924;28;20443;-79
2023/04/24 04:33:21;;;;;;;45.60;41.05;;;;;;;;;;4987472;28;20418;-79
2023/04/24 04:35:56;;;;;;;45.88;41.13;;;;;;;;;;4997560;28;20481;-77
2023/04/24 04:38:22;;;;;;;45.15;40.67;;;;;;;;;;5021150;28;20430;-82
2023/04/24 04:40:48;;;;;;;44.50;39.97;;;;;;;;;;5016363;28;20412;-82
2023/04/24 04:43:15;;;;;;;42.30;37.97;;;;;;;;;;5016234;28;20433;-81
2023/04/24 04:45:43;;;;;;;43.75;39.13;;;;;;;;;;5016225;28;20409;-81
2023/04/24 04:48:09;;;;;;;42.67;38.17;;;;;;;;;;5016272;28;20428;-82
2023/04/24 04:50:38;;;;;;;45.13;40.45;;;;;;;;;;5016398;28;20410;-81
2023/04/24 04:53:05;;;;;;;45.38;40.65;;;;;;;;;;5000013;28;20440;-81
2023/04/24 04:55:31;;;;;;;41.90;37.70;;;;;;;;;;5016314;28;20405;-81
2023/04/24 04:57:57;;;;;;;42.80;38.27;;;;;;;;;;5033728;28;20585;-81
2023/04/24 05:00:25;;;;;;;42.60;38.00;;;;;;;;;;4999702;28;20420;-81
2023/04/24 05:02:54;;;;;;;43.78;39.13;;;;;;;;;;5015556;28;20417;-81
2023/04/24 05:05:20;;;;;;;42.03;37.47;;;;;;;;;;5015870;28;20417;-82
2023/04/24 05:07:46;;;;;;;42.30;37.15;;;;;;;;;;4999567;28;20490;-82
2023/04/24 05:10:12;;;;;;;41.40;36.92;;;;;;;;;;5015757;28;20433;-81
2023/04/24 05:12:38;;;;;;;44.22;39.53;;;;;;;;;;5015752;28;20441;-78
2023/04/24 05:15:05;;;;;;;40.08;35.67;;;;;;;;;;5030085;28;20469;-78
2023/04/24 05:17:31;;;;;;;37.47;33.63;;;;;;;;;;4985413;28;20410;-77
2023/04/24 05:19:57;;;;;;;38.70;34.55;;;;;;;;;;5015536;28;20432;-78
2023/04/24 05:22:25;;;;;;;38.95;34.25;;;;;;;;;;4999469;28;20409;-77
2023/04/24 05:24:51;;;;;;;42.80;36.80;;;;;;;;;;4991276;28;20436;-77
2023/04/24 05:27:20;;;;;;;40.08;35.13;;;;;;;;;;4998709;28;20409;-77
2023/04/24 05:29:46;;;;;;;37.97;33.67;;;;;;;;;;5000301;28;20511;-81
2023/04/24 05:32:12;;;;;;;36.15;32.25;;;;;;;;;;5015571;28;20465;-81
2023/04/24 05:34:38;;;;;;;30.53;26.47;;;;;;;;;;4999212;28;20191;-81
2023/04/24 05:37:07;;;;;;;29.60;24.67;;;;;;;;;;4985303;28;20192;-81
2023/04/24 05:39:35;;;;;;;28.90;24.37;;;;;;;;;;5017352;28;20176;-81
2023/04/24 05:42:01;;;;;;;27.87;24.00;;;;;;;;;;4993529;28;20188;-81
2023/04/24 05:44:27;;;;;;;28.87;25.73;;;;;;;;;;4996903;28;20213;-80
2023/04/24 05:46:55;;;;;;;29.77;25.07;;;;;;;;;;4980806;28;20219;-80
2023/04/24 05:49:21;;;;;;;29.97;25.53;;;;;;;;;;4980934;28;20177;-80
2023/04/24 05:51:47;;;;;;;26.43;22.73;;;;;;;;;;4980802;28;20196;-80
2023/04/24 05:54:13;;;;;;;27.77;22.97;;;;;;;;;;4996694;28;20192;-80
2023/04/24 05:56:39;;;;;;;26.17;22.83;;;;;;;;;;5014045;28;20186;-80
2023/04/24 05:59:05;;;;;;;26.70;21.03;;;;;;;;;;4996734;28;20185;-80
2023/04/24 06:01:31;;;;;;;22.60;20.07;;;;;;;;;;4981122;28;20177;-82
2023/04/24 06:03:57;;;;;;;25.07;21.07;;;;;;;;;;4981129;28;20213;-81
2023/04/24 06:06:27;;;;;;;24.70;19.97;;;;;;;;;;4996741;28;20185;-82
2023/04/24 06:08:53;;;;;;;26.23;21.47;;;;;;;;;;4980593;28;20185;-82
2023/04/24 06:11:19;;;;;;;25.70;21.47;;;;;;;;;;4996591;28;20193;-82
2023/04/24 06:13:45;;;;;;;26.97;21.60;;;;;;;;;;5002444;28;20185;-81
2023/04/24 06:16:11;;;;;;;31.23;26.27;;;;;;;;;;5014986;28;20445;-82
2023/04/24 06:18:37;;;;;;;26.60;23.70;;;;;;;;;;4998934;28;20453;-79
2023/04/24 06:21:05;;;;;;;26.15;23.35;;;;;;;;;;4999192;28;20433;-78
2023/04/24 06:23:32;;;;;;;21.10;18.33;;;;;;;;;;4999314;28;20213;-78
2023/04/24 06:25:58;;;;;;;23.65;21.15;;;;;;;;;;5015232;28;20401;-78
2023/04/24 06:28:24;;;;;;;22.77;20.38;;;;;;;;;;5030683;28;20424;-78
2023/04/24 06:30:50;;;;;;;25.33;22.42;;;;;;;;;;4998123;28;20433;-78
2023/04/24 06:33:17;;;;;;;23.63;21.23;;;;;;;;;;5015497;28;20417;-78
2023/04/24 06:35:43;;;;;;;21.98;19.58;;;;;;;;;;5031592;28;20431;-80
2023/04/24 06:38:09;;;;;;;22.52;20.10;;;;;;;;;;4998608;28;20409;-79
2023/04/24 06:40:35;;;;;;;22.42;20.10;;;;;;;;;;5002225;28;20413;-79
2023/04/24 06:43:02;;;;;;;22.63;20.23;;;;;;;;;;5002743;28;20437;-80
2023/04/24 06:45:29;;;;;;;20.87;18.73;;;;;;;;;;5035261;28;20413;-80
2023/04/24 06:47:56;;;;;;;20.83;18.70;;;;;;;;;;5035355;28;20457;-80
2023/04/24 06:50:22;;;;;;;20.30;18.27;;;;;;;;;;5019354;28;20440;-80
2023/04/24 06:52:48;;;;;;;19.65;17.63;;;;;;;;;;5002647;28;20401;-78
2023/04/24 06:55:16;;;;;;;20.13;18.02;;;;;;;;;;5034905;28;20406;-78
2023/04/24 06:57:42;;;;;;;19.92;18.02;;;;;;;;;;5035053;28;20487;-78
2023/04/24 07:00:09;;;;;;;18.85;16.90;;;;;;;;;;5034916;28;20410;-78
2023/04/24 07:02:35;;;;;;;18.20;15.35;;;;;;;;;;5019352;28;20447;-78
2023/04/24 07:05:01;;;;;;;14.60;12.93;;;;;;;;;;5035558;28;20214;-78
2023/04/24 07:07:27;;;;;;;13.80;12.33;;;;;;;;;;5036783;28;20176;-82
2023/04/24 07:09:54;;;;;;;12.13;10.87;;;;;;;;;;5019771;28;20177;-82
2023/04/24 07:12:21;;;;;;;9.73;8.67;;;;;;;;;;4999796;28;20173;-82
2023/04/24 07:14:47;;;;;;;9.80;8.20;;;;;;;;;;4999797;28;20173;-81
2023/04/24 07:17:14;;;;;;;10.87;9.17;;;;;;;;;;4999245;28;20184;-83
2023/04/24 07:19:40;;;;;;;8.77;7.77;;;;;;;;;;5016565;28;20265;-82
2023/04/24 07:22:06;;;;;;;7.00;6.30;;;;;;;;;;4999336;28;20181;-82
2023/04/24 07:24:33;;;;;;;7.00;6.03;;;;;;;;;;4999487;28;20255;-78
2023/04/24 07:27:00;;;;;;;7.90;6.20;;;;;;;;;;4999086;28;20184;-79
2023/04/24 07:29:26;;;;;;;6.87;5.90;;;;;;;;;;4997661;28;20177;-78
2023/04/24 07:31:53;;;;;;;6.20;4.70;;;;;;;;;;4999144;28;20300;-78
2023/04/24 07:34:20;;;;;;;4.07;3.67;;;;;;;;;;4998979;28;20198;-78
2023/04/24 07:36:47;;;;;;;4.87;3.80;;;;;;;;;;4998780;28;20280;-78
2023/04/24 07:39:13;;;;;;;4.40;3.97;;;;;;;;;;4999096;28;20173;-78
2023/04/24 07:41:39;;;;;;;5.57;3.93;;;;;;;;;;4998769;28;20182;-80
2023/04/24 07:44:05;;;;;;;3.90;3.30;;;;;;;;;;4998655;28;20267;-80
2023/04/24 07:46:31;;;;;;;4.27;2.97;;;;;;;;;;4998631;28;20186;-80
2023/04/24 07:48:59;;;;;;;4.77;3.63;;;;;;;;;;4998358;28;20173;-80
2023/04/24 07:51:27;;;;;;;4.13;3.10;;;;;;;;;;4998169;28;20200;-80
2023/04/24 07:53:54;;;;;;;3.60;3.30;;;;;;;;;;4998905;28;20177;-80
2023/04/24 07:56:21;;;;;;;4.13;3.60;;;;;;;;;;5005911;28;20176;-80
2023/04/24 07:58:47;;;;;;;4.73;4.07;;;;;;;;;;5035575;28;20192;-80
2023/04/24 08:01:13;;;;;;;5.67;4.60;;;;;;;;;;5001634;28;20188;-80
2023/04/24 08:03:39;;;;;;;5.97;5.37;;;;;;;;;;5017638;28;20208;-80
2023/04/24 08:06:05;;;;;;;8.53;6.93;;;;;;;;;;5017777;28;20183;-80
2023/04/24 08:08:31;;;;;;;9.87;7.90;;;;;;;;;;5001390;28;20318;-80
2023/04/24 08:10:57;;;;;;;10.40;8.90;;;;;;;;;;5017693;28;20172;-80
2023/04/24 08:13:23;;;;;;;10.73;8.60;;;;;;;;;;5001268;28;20200;-80
2023/04/24 08:15:49;;;;;;;11.20;9.63;;;;;;;;;;5017173;28;20228;-78
2023/04/24 08:18:16;;;;;;;10.40;9.40;;;;;;;;;;5001299;28;20196;-77
2023/04/24 08:20:42;;;;;;;15.53;9.60;;;;;;;;;;5001340;28;20172;-78
2023/04/24 08:23:08;;;;;;;12.57;9.37;;;;;;;;;;5017841;28;20187;-78
2023/04/24 08:25:35;;;;;;;12.03;9.13;;;;;;;;;;5017635;28;20176;-77
2023/04/24 08:28:02;;;;;;;13.33;9.37;;;;;;;;;;5017416;28;20188;-78
2023/04/24 08:30:28;;;;;;;14.73;9.60;;;;;;;;;;5017149;28;20173;-77
2023/04/24 08:32:54;;;;;;;12.27;8.93;;;;;;;;;;5017491;28;20172;-77
2023/04/24 08:35:21;;;;;;;14.63;9.00;;;;;;;;;;5000992;28;20191;-78
2023/04/24 08:37:47;;;;;;;11.10;8.60;;;;;;;;;;5017393;28;20215;-78
2023/04/24 08:40:14;;;;;;;12.03;9.37;;;;;;;;;;5017013;28;20212;-78
2023/04/24 08:42:42;;;;;;;13.17;9.30;;;;;;;;;;5017623;28;20181;-77
2023/04/24 08:45:09;;;;;;;14.30;10.03;;;;;;;;;;5016912;28;20205;-78
2023/04/24 08:47:36;;;;;;;14.33;10.17;;;;;;;;;;5034640;28;20180;-77
2023/04/24 08:50:05;;;;;;;10.93;9.50;;;;;;;;;;5017014;28;20195;-78
2023/04/24 08:52:32;;;;;;;13.00;10.00;;;;;;;;;;5016958;28;20211;-77
2023/04/24 08:55:00;;;;;;;12.53;8.83;;;;;;;;;;5017016;28;20181;-78
2023/04/24 08:57:27;;;;;;;13.60;9.27;;;;;;;;;;5016764;28;20188;-78
2023/04/24 08:59:54;;;;;;;14.20;10.07;;;;;;;;;;5016766;28;20180;-77
2023/04/24 09:02:20;;;;;;;11.27;9.10;;;;;;;;;;5016344;28;20204;-77
2023/04/24 09:04:47;;;;;;;14.57;9.43;;;;;;;;;;5016905;28;20266;-78
2023/04/24 09:07:15;;;;;;;13.40;8.70;;;;;;;;;;5016800;28;20223;-77
2023/04/24 09:09:41;;;;;;;11.37;8.37;;;;;;;;;;5034186;28;20290;-78
2023/04/24 09:12:09;;;;;;;10.27;7.00;;;;;;;;;;5000263;28;20187;-78
2023/04/24 09:14:38;;;;;;;10.77;7.00;;;;;;;;;;5016567;28;20271;-78
2023/04/24 09:17:04;;;;;;;8.90;6.07;;;;;;;;;;5017054;28;20235;-77
2023/04/24 09:19:30;;;;;;;7.63;5.27;;;;;;;;;;5000278;28;20190;-77
2023/04/24 09:21:57;;;;;;;9.20;4.93;;;;;;;;;;5000205;28;20189;-80
2023/04/24 09:24:23;;;;;;;8.17;5.17;;;;;;;;;;5016403;28;20211;-79
2023/04/24 09:26:49;;;;;;;9.70;4.87;;;;;;;;;;5000188;28;20180;-79
2023/04/24 09:29:18;;;;;;;10.77;5.37;;;;;;;;;;5033808;28;20173;-79
2023/04/24 09:31:45;;;;;;;12.43;5.93;;;;;;;;;;5016625;28;20183;-79
2023/04/24 09:34:12;;;;;;;13.17;5.70;;;;;;;;;;5016482;28;20185;-79
2023/04/24 09:36:39;;;;;;;14.20;5.47;;;;;;;;;;5016366;28;20181;-79
2023/04/24 09:39:15;;;;;;;12.77;5.27;;;;;;;;;;5016267;28;20176;-78
2023/04/24 09:41:56;;;;;;;14.43;5.60;;;;;;;;;;5016347;28;20184;-78
2023/04/24 09:44:23;;;;;;;12.20;4.37;;;;;;;;;;5000539;28;20213;-78
2023/04/24 09:46:53;;;;;;;9.37;4.20;;;;;;;;;;5016360;28;20176;-78
2023/04/24 09:49:23;;;;;;;9.50;4.20;;;;;;;;;;5033694;28;20263;-79
2023/04/24 09:51:50;;;;;;;15.17;4.53;;;;;;;;;;5016291;28;20172;-78
2023/04/24 09:54:17;;;;;;;12.03;4.13;;;;;;;;;;5016022;28;20635;-79
2023/04/24 09:56:47;;;;;;;15.30;4.30;;;;;;;;;;5016133;28;20172;-79
2023/04/24 09:59:14;;;;;;;11.73;4.03;;;;;;;;;;5015962;28;20240;-79
2023/04/24 10:01:49;;;;;;;14.43;4.60;;;;;;;;;;5033692;28;20216;-79
2023/04/24 10:04:27;;;;;;;14.00;3.90;;;;;;;;;;5000959;28;20221;-79
2023/04/24 10:06:55;;;;;;;11.43;4.10;;;;;;;;;;5016293;28;20172;-80
2023/04/24 10:09:22;;;;;;;16.70;3.80;;;;;;;;;;5016438;28;20219;-79
2023/04/24 10:11:50;;;;;;;11.10;3.60;;;;;;;;;;4999628;28;20196;-79
2023/04/24 10:14:17;;;;;;;9.93;3.90;;;;;;;;;;5019088;28;20180;-78
2023/04/24 10:16:44;;;;;;;14.53;4.17;;;;;;;;;;5019506;28;20258;-78
2023/04/24 10:19:12;;;;;;;13.47;4.10;;;;;;;;;;5020061;28;20176;-78
2023/04/24 10:21:42;;;;;;;11.70;4.03;;;;;;;;;;5037362;28;20176;-78
2023/04/24 10:24:08;;;;;;;15.23;4.20;;;;;;;;;;5003613;28;20212;-79
2023/04/24 10:26:35;;;;;;;13.07;3.80;;;;;;;;;;5019504;28;20180;-79
2023/04/24 10:29:01;;;;;;;12.13;4.03;;;;;;;;;;5019467;28;20219;-79
2023/04/24 10:31:27;;;;;;;11.00;3.60;;;;;;;;;;5019568;28;20172;-79
2023/04/24 10:33:54;;;;;;;10.30;3.60;;;;;;;;;;5003493;28;20256;-79
2023/04/24 10:36:23;;;;;;;9.70;3.43;;;;;;;;;;5019628;28;20185;-79
2023/04/24 10:38:49;;;;;;;10.73;3.97;;;;;;;;;;5019588;28;20187;-79
2023/04/24 10:41:23;;;;;;;13.07;3.47;;;;;;;;;;5019481;28;20216;-79
2023/04/24 10:43:50;;;;;;;8.33;4.43;;;;;;;;;;5019365;28;20227;-79
2023/04/24 10:46:23;;;;;;;9.20;3.60;;;;;;;;;;5003308;28;20181;-84
2023/04/24 10:48:54;;;;;;;11.87;3.50;;;;;;;;;;5020007;28;20259;-83
2023/04/24 10:51:22;;;;;;;10.67;3.70;;;;;;;;;;5036823;28;20256;-84
2023/04/24 10:53:49;;;;;;;11.13;3.43;;;;;;;;;;5019115;28;20196;-84
2023/04/24 10:56:16;;;;;;;10.33;3.23;;;;;;;;;;5019245;28;20184;-84
2023/04/24 10:58:50;;;;;;;8.27;3.50;;;;;;;;;;5002943;28;20185;-84
2023/04/24 11:01:26;;;;;;;7.30;2.80;;;;;;;;;;5019537;28;20181;-79
2023/04/24 11:03:56;;;;;;;9.70;3.17;;;;;;;;;;5018849;28;20208;-79
2023/04/24 11:06:29;;;;;;;8.03;2.50;;;;;;;;;;5018957;28;20172;-79
2023/04/24 11:09:02;;;;;;;10.30;3.33;;;;;;;;;;5018908;28;20181;-79
2023/04/24 11:11:30;;;;;;;8.73;2.63;;;;;;;;;;5018990;28;20188;-79
2023/04/24 11:13:56;;;;;;;9.93;3.03;;;;;;;;;;5036379;28;20165;-79
2023/04/24 11:16:28;;;;;;;8.93;3.13;;;;;;;;;;5018634;28;20236;-79
2023/04/24 11:19:08;;;;;;;9.70;2.70;;;;;;;;;;5018592;28;20238;-80
2023/04/24 11:21:43;;;;;;;6.83;2.40;;;;;;;;;;5018409;28;20196;-79
2023/04/24 11:24:28;;;;;;;6.57;2.30;;;;;;;;;;5018042;28;20211;-79
2023/04/24 11:26:57;;;;;;;6.53;2.33;;;;;;;;;;5018569;28;20177;-80
2023/04/24 11:29:23;;;;;;;7.70;2.20;;;;;;;;;;5036014;28;20224;-80
2023/04/24 11:31:51;;;;;;;5.03;1.87;;;;;;;;;;5018413;28;20207;-80
2023/04/24 11:34:17;;;;;;;5.40;2.07;;;;;;;;;;5035923;28;20264;-79
2023/04/24 11:36:44;;;;;;;5.67;1.93;;;;;;;;;;5018821;28;20181;-79
2023/04/24 11:39:11;;;;;;;6.33;2.00;;;;;;;;;;5018655;28;20181;-79
2023/04/24 11:41:37;;;;;;;6.63;1.90;;;;;;;;;;5018486;28;20346;-79
2023/04/24 11:44:04;;;;;;;6.57;1.70;;;;;;;;;;5035790;28;20208;-79
2023/04/24 11:46:31;;;;;;;3.37;1.57;;;;;;;;;;5035556;28;20264;-79
2023/04/24 11:48:57;;;;;;;5.80;1.80;;;;;;;;;;5036105;28;20188;-79
2023/04/24 11:51:25;;;;;;;5.87;1.90;;;;;;;;;;5001840;28;20181;-79
2023/04/24 11:53:51;;;;;;;3.20;1.33;;;;;;;;;;5018031;28;20176;-79
2023/04/24 11:56:25;;;;;;;3.10;1.30;;;;;;;;;;5017978;28;20220;-79
2023/04/24 11:58:54;;;;;;;3.50;1.57;;;;;;;;;;5017798;28;20176;-79
2023/04/24 12:01:20;;;;;;;4.88;1.38;;;;;;;;;;5017570;28;20424;-79
2023/04/24 12:03:53;;;;;;;3.28;1.50;;;;;;;;;;5001006;28;20433;-79
2023/04/24 12:06:19;;;;;;;2.88;1.58;;;;;;;;;;5034269;28;20413;-79
2023/04/24 12:08:48;;;;;;;4.63;1.50;;;;;;;;;;5016872;28;20394;-80
2023/04/24 12:11:15;;;;;;;4.05;1.70;;;;;;;;;;5017275;28;20405;-80
2023/04/24 12:13:41;;;;;;;3.10;1.42;;;;;;;;;;5016840;28;20420;-80
2023/04/24 12:16:07;;;;;;;4.13;1.60;;;;;;;;;;5000407;28;20433;-80
2023/04/24 12:18:33;;;;;;;4.80;1.80;;;;;;;;;;5034364;28;20421;-80
2023/04/24 12:21:35;;;;;;;2.33;1.40;;;;;;;;;;5017501;28;20181;-80
2023/04/24 12:24:01;;;;;;;3.80;1.40;;;;;;;;;;4954772;29;20210;-80
2023/04/24 12:26:28;;;;;;;3.80;1.70;;;;;;;;;;5001142;28;20429;-80
2023/04/24 12:28:54;;;;;;;6.18;1.80;;;;;;;;;;5016488;28;20485;-80
2023/04/24 12:31:22;;;;;;;6.43;1.90;;;;;;;;;;5016488;28;20422;-80
2023/04/24 12:33:48;;;;;;;5.60;1.77;;;;;;;;;;5016520;28;20486;-80
2023/04/24 12:36:14;;;;;;;3.90;1.77;;;;;;;;;;5015842;28;20444;-80
2023/04/24 12:38:40;;;;;;;3.85;1.80;;;;;;;;;;4999866;28;20464;-80
2023/04/24 12:41:07;;;;;;;4.60;1.40;;;;;;;;;;5016530;28;20472;-80
2023/04/24 12:43:33;;;;;;;6.03;1.60;;;;;;;;;;5016177;28;20436;-80
2023/04/24 12:45:59;;;;;;;2.95;1.23;;;;;;;;;;5016314;28;20434;-80
2023/04/24 12:48:29;;;;;;;3.63;1.35;;;;;;;;;;5016250;28;20408;-80
2023/04/24 12:50:56;;;;;;;3.85;1.48;;;;;;;;;;5015905;28;20481;-80
2023/04/24 12:53:22;;;;;;;3.20;1.58;;;;;;;;;;4999790;28;20414;-80
2023/04/24 12:55:52;;;;;;;3.60;1.52;;;;;;;;;;5015927;28;20414;-80
2023/04/24 12:58:20;;;;;;;3.95;1.65;;;;;;;;;;5033644;28;20401;-84
2023/04/24 13:00:46;;;;;;;4.47;1.50;;;;;;;;;;5033446;28;20413;-84
2023/04/24 13:03:12;;;;;;;4.10;1.40;;;;;;;;;;5033563;28;20416;-84
2023/04/24 13:05:38;;;;;;;5.20;1.70;;;;;;;;;;5016045;28;20401;-83
2023/04/24 13:08:04;;;;;;;5.00;1.65;;;;;;;;;;4999609;28;20420;-83
2023/04/24 13:10:30;;;;;;;3.40;1.50;;;;;;;;;;4999806;28;20402;-84
2023/04/24 13:12:57;;;;;;;3.53;1.50;;;;;;;;;;4999659;28;20410;-84
2023/04/24 13:15:23;;;;;;;5.25;1.88;;;;;;;;;;4996084;28;20471;-79
2023/04/24 13:17:49;;;;;;;3.95;1.70;;;;;;;;;;5033293;28;20448;-79
2023/04/24 13:20:15;;;;;;;4.18;1.60;;;;;;;;;;4999375;28;20453;-79
2023/04/24 13:22:41;;;;;;;4.13;1.70;;;;;;;;;;5015720;28;20441;-79
2023/04/24 13:25:07;;;;;;;4.93;1.80;;;;;;;;;;4999218;28;20520;-79
2023/04/24 13:27:33;;;;;;;4.53;1.80;;;;;;;;;;4999351;28;20460;-79
2023/04/24 13:30:00;;;;;;;4.57;1.80;;;;;;;;;;5033256;28;20397;-79
2023/04/24 13:32:26;;;;;;;6.28;2.00;;;;;;;;;;4999562;28;20432;-79
2023/04/24 13:34:52;;;;;;;6.70;2.03;;;;;;;;;;4999234;28;20402;-79
2023/04/24 13:37:18;;;;;;;7.88;2.28;;;;;;;;;;4999238;28;20449;-79
2023/04/24 13:39:44;;;;;;;5.33;2.13;;;;;;;;;;5015497;28;20428;-79
2023/04/24 13:42:11;;;;;;;7.33;2.37;;;;;;;;;;4998940;28;20473;-79
2023/04/24 13:44:37;;;;;;;8.02;2.35;;;;;;;;;;5015174;28;20442;-79
2023/04/24 13:47:03;;;;;;;8.43;2.30;;;;;;;;;;5015325;28;20409;-79
2023/04/24 13:49:29;;;;;;;6.50;2.40;;;;;;;;;;5021803;28;20409;-80
2023/04/24 13:51:55;;;;;;;7.13;2.50;;;;;;;;;;5005660;28;20500;-80
2023/04/24 13:54:23;;;;;;;6.18;2.50;;;;;;;;;;5039319;28;20405;-80
2023/04/24 13:56:50;;;;;;;9.07;2.63;;;;;;;;;;5039423;28;20404;-80
2023/04/24 13:59:16;;;;;;;8.77;2.70;;;;;;;;;;5039408;28;20401;-80
2023/04/24 14:01:44;;;;;;;10.45;2.67;;;;;;;;;;5039306;28;20459;-78
2023/04/24 14:04:10;;;;;;;7.65;2.72;;;;;;;;;;5021772;28;20467;-82
2023/04/24 14:06:36;;;;;;;8.45;2.53;;;;;;;;;;5022150;28;20405;-82
2023/04/24 14:09:02;;;;;;;9.55;2.83;;;;;;;;;;5021999;28;20481;-82
2023/04/24 14:11:29;;;;;;;7.30;2.58;;;;;;;;;;5005776;28;20424;-82
2023/04/24 14:13:58;;;;;;;7.18;2.80;;;;;;;;;;5005571;28;20453;-83
2023/04/24 14:16:24;;;;;;;7.83;2.70;;;;;;;;;;5005372;28;20437;-82
2023/04/24 14:18:50;;;;;;;10.15;2.90;;;;;;;;;;5004825;28;20433;-83
2023/04/24 14:21:16;;;;;;;9.32;2.83;;;;;;;;;;4997295;28;20443;-78
2023/04/24 14:23:42;;;;;;;6.97;3.05;;;;;;;;;;5005393;28;20514;-78
2023/04/24 14:26:08;;;;;;;8.73;3.23;;;;;;;;;;5005394;28;20437;-78
2023/04/24 14:28:35;;;;;;;10.20;3.10;;;;;;;;;;5037906;28;20441;-78